Time;durP1;ratioP1;P1;durP2;ratioP2;P2;SDS_P1;SDS_P2;PMS_P1;PMS_P2;Temp;Humidity;BMP_temperature;BMP_pressure;BME280_temperature;BME280_humidity;BME280_pressure;Samples;Min_cycle;Max_cycle;Signal;HPM_P1;HPM_P2
2022/10/09 00:02:56;;;;;;;20.33;6.77;;;;;5.60;102006.00;;;;10508995;28;20216;-76
2022/10/09 00:07:57;;;;;;;16.47;6.67;;;;;5.60;101996.00;;;;10478909;28;20227;-76
2022/10/09 00:12:58;;;;;;;12.90;6.23;;;;;5.50;101993.00;;;;10473128;28;20266;-76
2022/10/09 00:17:59;;;;;;;10.90;6.03;;;;;5.40;101994.00;;;;10467981;28;20224;-76
2022/10/09 00:23:00;;;;;;;11.90;5.73;;;;;5.40;101991.00;;;;10472476;28;20217;-76
2022/10/09 00:28:03;;;;;;;13.30;6.20;;;;;5.30;101990.00;;;;10502990;28;20192;-76
2022/10/09 00:33:04;;;;;;;9.83;5.63;;;;;5.30;101997.00;;;;10470485;28;20221;-76
2022/10/09 00:38:06;;;;;;;12.43;4.97;;;;;5.30;101990.00;;;;10464733;28;20258;-76
2022/10/09 00:43:16;;;;;;;12.97;6.40;;;;;5.20;101987.00;;;;10462059;28;20220;-76
2022/10/09 00:48:18;;;;;;;13.03;5.20;;;;;5.20;101980.00;;;;10486217;28;20204;-76
2022/10/09 00:53:22;;;;;;;8.60;4.83;;;;;5.20;101978.00;;;;10472682;28;20219;-76
2022/10/09 00:58:24;;;;;;;14.03;6.33;;;;;5.20;101986.00;;;;10487904;28;20204;-76
2022/10/09 01:03:25;;;;;;;11.00;5.67;;;;;5.20;101983.00;;;;10442921;28;20220;-76
2022/10/09 01:08:42;;;;;;;9.80;5.23;;;;;5.10;101983.00;;;;10482772;28;20200;-76
2022/10/09 01:14:00;;;;;;;8.87;5.20;;;;;5.10;101982.00;;;;10501337;28;20728;-76
2022/10/09 01:19:34;;;;;;;9.93;5.70;;;;;5.00;101978.00;;;;10509785;28;20593;-76
2022/10/09 01:24:43;;;;;;;10.50;4.83;;;;;5.00;101974.00;;;;10442433;28;20209;-76
2022/10/09 01:29:52;;;;;;;10.80;5.13;;;;;5.00;101960.00;;;;10492554;27;20196;-76
2022/10/09 01:34:55;;;;;;;8.30;4.97;;;;;5.00;101953.00;;;;10465283;28;20201;-76
2022/10/09 01:39:57;;;;;;;11.30;4.90;;;;;4.90;101952.00;;;;10479544;28;20810;-76
2022/10/09 01:44:58;;;;;;;11.50;4.50;;;;;4.90;101953.00;;;;10478528;28;20193;-76
2022/10/09 01:50:11;;;;;;;8.20;4.27;;;;;4.90;101940.00;;;;10460318;28;20207;-76
2022/10/09 01:55:45;;;;;;;10.47;5.00;;;;;4.80;101922.00;;;;10475577;28;20206;-76
2022/10/09 02:01:10;;;;;;;7.50;5.00;;;;;4.70;101918.00;;;;10476148;28;20225;-76
2022/10/09 02:06:14;;;;;;;11.60;4.60;;;;;4.70;101915.00;;;;10497276;28;20407;-76
2022/10/09 02:11:16;;;;;;;7.03;4.33;;;;;4.70;101909.00;;;;10477561;28;20210;-76
2022/10/09 02:16:22;;;;;;;8.27;4.33;;;;;4.60;101919.00;;;;10451871;28;20287;-77
2022/10/09 02:21:44;;;;;;;8.13;4.00;;;;;4.60;101908.00;;;;10487185;28;20690;-76
2022/10/09 02:26:47;;;;;;;9.03;5.10;;;;;4.60;101903.00;;;;10485498;28;20198;-76
2022/10/09 02:31:48;;;;;;;10.77;5.60;;;;;4.60;101896.00;;;;10504099;28;20405;-76
2022/10/09 02:36:50;;;;;;;7.43;5.23;;;;;4.50;101900.00;;;;10500800;27;20725;-76
2022/10/09 02:41:51;;;;;;;10.00;5.97;;;;;4.50;101889.00;;;;10490529;27;20294;-76
2022/10/09 02:46:52;;;;;;;9.97;5.83;;;;;4.50;101892.00;;;;10481893;28;20193;-76
2022/10/09 02:51:53;;;;;;;12.00;6.10;;;;;4.40;101889.00;;;;10518549;28;20224;-76
2022/10/09 02:56:55;;;;;;;11.80;6.40;;;;;4.40;101884.00;;;;10477185;28;20196;-76
2022/10/09 03:01:56;;;;;;;10.90;6.03;;;;;4.30;101879.00;;;;10504505;28;20216;-77
2022/10/09 03:06:58;;;;;;;12.80;7.40;;;;;4.30;101888.00;;;;10492033;27;20231;-76
2022/10/09 03:11:59;;;;;;;13.70;6.87;;;;;4.30;101891.00;;;;10495417;28;20217;-77
2022/10/09 03:17:00;;;;;;;10.20;6.63;;;;;4.20;101881.00;;;;10456167;28;20193;-77
2022/10/09 03:22:01;;;;;;;11.87;6.67;;;;;4.10;101870.00;;;;10466166;28;20299;-77
2022/10/09 03:27:02;;;;;;;8.10;5.43;;;;;4.10;101882.00;;;;10472817;28;20228;-77
2022/10/09 03:32:04;;;;;;;10.77;6.07;;;;;4.00;101889.00;;;;10484298;27;20195;-77
2022/10/09 03:37:05;;;;;;;7.57;5.40;;;;;4.00;101881.00;;;;10479874;27;20188;-76
2022/10/09 03:42:06;;;;;;;14.07;6.30;;;;;4.00;101875.00;;;;10499186;28;20220;-76
2022/10/09 03:47:07;;;;;;;9.77;6.17;;;;;3.90;101884.00;;;;10523259;28;20707;-76
2022/10/09 03:52:08;;;;;;;14.80;6.37;;;;;3.90;101884.00;;;;10459481;28;20205;-77
2022/10/09 03:57:10;;;;;;;14.03;5.87;;;;;3.90;101869.00;;;;10510728;28;20200;-77
2022/10/09 04:02:11;;;;;;;10.47;6.37;;;;;3.80;101879.00;;;;10508888;28;20220;-77
2022/10/09 04:07:12;;;;;;;9.90;6.03;;;;;3.80;101870.00;;;;10496403;27;20204;-76
2022/10/09 04:12:13;;;;;;;10.50;6.10;;;;;3.80;101873.00;;;;10479622;27;20231;-77
2022/10/09 04:17:15;;;;;;;10.93;5.30;;;;;3.70;101865.00;;;;10507711;28;20201;-76
2022/10/09 04:22:16;;;;;;;12.37;7.80;;;;;3.70;101862.00;;;;10518803;28;20216;-76
2022/10/09 04:27:17;;;;;;;10.77;6.77;;;;;3.70;101864.00;;;;10478163;28;20551;-77
2022/10/09 04:32:18;;;;;;;12.70;6.87;;;;;3.70;101856.00;;;;10497549;28;20197;-77
2022/10/09 04:37:19;;;;;;;12.97;7.10;;;;;3.60;101849.00;;;;10450876;28;20196;-77
2022/10/09 04:42:20;;;;;;;11.27;6.90;;;;;3.60;101833.00;;;;10494167;28;20213;-77
2022/10/09 04:47:21;;;;;;;9.27;6.93;;;;;3.60;101831.00;;;;10476999;28;20205;-77
2022/10/09 04:52:23;;;;;;;16.30;7.60;;;;;3.60;101830.00;;;;10499176;28;20193;-77
2022/10/09 04:57:24;;;;;;;12.70;6.90;;;;;3.60;101825.00;;;;10478404;28;20197;-77
2022/10/09 05:02:25;;;;;;;11.13;6.87;;;;;3.50;101828.00;;;;10464484;28;20232;-77
2022/10/09 05:07:26;;;;;;;14.67;7.00;;;;;3.50;101837.00;;;;10473060;27;20221;-76
2022/10/09 05:12:27;;;;;;;12.27;6.67;;;;;3.40;101820.00;;;;10453241;28;20222;-77
2022/10/09 05:17:28;;;;;;;14.50;7.47;;;;;3.40;101817.00;;;;10469989;28;20208;-76
2022/10/09 05:22:29;;;;;;;14.03;7.17;;;;;3.40;101823.00;;;;10499767;28;20306;-77
2022/10/09 05:27:31;;;;;;;12.40;6.27;;;;;3.50;101813.00;;;;10505531;28;20204;-77
2022/10/09 05:32:32;;;;;;;17.87;7.27;;;;;3.50;101808.00;;;;10470386;28;20193;-76
2022/10/09 05:37:33;;;;;;;13.87;7.30;;;;;3.50;101804.00;;;;10464320;28;20249;-77
2022/10/09 05:42:34;;;;;;;10.93;6.50;;;;;3.60;101804.00;;;;10512524;28;20213;-77
2022/10/09 05:47:35;;;;;;;13.70;6.97;;;;;3.60;101799.00;;;;10465749;28;20209;-77
2022/10/09 05:52:38;;;;;;;13.37;7.03;;;;;3.60;101797.00;;;;10498898;28;20197;-77
2022/10/09 05:57:40;;;;;;;14.30;6.47;;;;;3.60;101809.00;;;;10492026;28;20201;-77
2022/10/09 06:02:41;;;;;;;13.03;6.37;;;;;3.60;101805.00;;;;10479848;28;20224;-77
2022/10/09 06:07:44;;;;;;;13.13;6.73;;;;;3.70;101801.00;;;;10491754;27;20196;-76
2022/10/09 06:12:45;;;;;;;12.47;7.23;;;;;3.70;101804.00;;;;10507210;28;20216;-77
2022/10/09 06:17:46;;;;;;;13.03;7.53;;;;;3.80;101808.00;;;;10493383;28;20211;-76
2022/10/09 06:22:48;;;;;;;9.80;7.13;;;;;3.90;101797.00;;;;10505163;28;20446;-77
2022/10/09 06:27:49;;;;;;;12.80;6.93;;;;;4.00;101812.00;;;;10478375;28;20200;-76
2022/10/09 06:32:50;;;;;;;16.73;7.23;;;;;4.10;101811.00;;;;10514851;27;20250;-76
2022/10/09 06:37:52;;;;;;;12.13;7.87;;;;;4.30;101806.00;;;;10491265;28;20215;-77
2022/10/09 06:42:54;;;;;;;11.07;7.33;;;;;4.50;101807.00;;;;10438099;28;20762;-77
2022/10/09 06:47:56;;;;;;;17.33;8.23;;;;;4.70;101818.00;;;;10470948;27;20663;-77
2022/10/09 06:52:57;;;;;;;13.27;8.43;;;;;5.00;101816.00;;;;10498702;27;20663;-77
2022/10/09 06:57:59;;;;;;;14.70;8.27;;;;;5.20;101818.00;;;;10485133;28;20231;-76
2022/10/09 07:03:00;;;;;;;12.23;7.67;;;;;5.50;101805.00;;;;10503259;28;20296;-77
2022/10/09 07:08:01;;;;;;;22.27;9.90;;;;;5.80;101803.00;;;;10514602;28;20192;-76
2022/10/09 07:13:03;;;;;;;13.80;9.63;;;;;6.20;101804.00;;;;10488577;28;20220;-77
2022/10/09 07:18:04;;;;;;;12.87;9.30;;;;;6.40;101803.00;;;;10483820;28;20190;-77
2022/10/09 07:23:06;;;;;;;14.50;8.63;;;;;6.70;101805.00;;;;10487897;28;20269;-77
2022/10/09 07:28:07;;;;;;;13.60;7.77;;;;;7.00;101808.00;;;;10456628;28;20777;-77
2022/10/09 07:33:08;;;;;;;19.10;8.57;;;;;7.30;101798.00;;;;10445999;28;20208;-76
2022/10/09 07:38:09;;;;;;;17.20;9.27;;;;;7.70;101803.00;;;;10491239;28;20288;-76
2022/10/09 07:43:11;;;;;;;14.97;8.60;;;;;8.00;101795.00;;;;10485333;28;20747;-77
2022/10/09 07:48:12;;;;;;;17.37;9.27;;;;;8.40;101788.00;;;;10513363;28;20200;-77
2022/10/09 07:53:13;;;;;;;15.23;8.20;;;;;8.90;101787.00;;;;10472533;28;20208;-77
2022/10/09 07:58:16;;;;;;;15.03;7.17;;;;;9.60;101793.00;;;;10476545;28;20199;-76
2022/10/09 08:03:17;;;;;;;16.90;7.70;;;;;10.10;101792.00;;;;10502205;28;20614;-77
2022/10/09 08:08:18;;;;;;;11.73;6.37;;;;;10.50;101800.00;;;;10508372;28;20259;-76
2022/10/09 08:13:19;;;;;;;8.67;5.50;;;;;10.90;101797.00;;;;10513477;28;20360;-77
2022/10/09 08:18:20;;;;;;;8.33;5.37;;;;;11.50;101799.00;;;;10520034;28;20192;-77
2022/10/09 08:23:21;;;;;;;7.87;4.60;;;;;12.00;101790.00;;;;10507898;27;20212;-77
2022/10/09 08:28:23;;;;;;;7.57;3.23;;;;;12.50;101790.00;;;;10509398;27;20185;-77
2022/10/09 08:33:24;;;;;;;6.70;2.70;;;;;13.00;101782.00;;;;10505867;28;20197;-77
2022/10/09 08:38:26;;;;;;;10.90;2.33;;;;;13.30;101783.00;;;;10506690;28;20207;-77
2022/10/09 08:43:50;;;;;;;6.93;2.43;;;;;13.60;101781.00;;;;10471243;28;20256;-78
2022/10/09 08:48:52;;;;;;;7.77;2.50;;;;;13.80;101775.00;;;;10499998;28;20206;-77
2022/10/09 08:54:02;;;;;;;4.60;2.30;;;;;14.10;101766.00;;;;10503604;27;20194;-77
2022/10/09 08:59:04;;;;;;;7.07;2.70;;;;;14.30;101764.00;;;;10479380;28;20196;-77
2022/10/09 09:04:26;;;;;;;7.53;2.83;;;;;14.60;101757.00;;;;10479257;28;20224;-77
2022/10/09 09:09:55;;;;;;;10.52;2.83;;;;;15.00;101752.00;;;;10480609;27;20277;-77
2022/10/09 09:15:33;;;;;;;5.65;2.15;;;;;15.40;101745.00;;;;10492156;28;20201;-77
2022/10/09 09:20:49;;;;;;;7.47;2.60;;;;;15.80;101745.00;;;;10469866;28;20217;-77
2022/10/09 09:25:51;;;;;;;7.20;2.20;;;;;16.00;101737.00;;;;10479544;28;20200;-77
2022/10/09 09:30:57;;;;;;;8.18;2.08;;;;;16.20;101728.00;;;;10508283;28;20204;-77
2022/10/09 09:36:16;;;;;;;5.78;1.88;;;;;16.20;101717.00;;;;10501300;28;20209;-77
2022/10/09 09:41:17;;;;;;;3.67;1.70;;;;;16.20;101711.00;;;;10511943;28;20300;-77
2022/10/09 09:46:26;;;;;;;6.40;2.28;;;;;16.30;101710.00;;;;10466066;28;20711;-77
2022/10/09 09:51:31;;;;;;;5.90;2.72;;;;;16.40;101692.00;;;;10502961;28;20301;-77
2022/10/09 09:56:42;;;;;;;4.75;2.20;;;;;16.60;101693.00;;;;10503306;28;20203;-77
2022/10/09 10:02:18;;;;;;;4.38;2.47;;;;;16.80;101694.00;;;;10496746;28;20217;-77
2022/10/09 10:07:29;;;;;;;5.88;2.30;;;;;17.00;101689.00;;;;10496789;28;20196;-76
2022/10/09 10:12:30;;;;;;;5.45;2.58;;;;;17.30;101675.00;;;;10488684;28;20228;-76
2022/10/09 10:17:34;;;;;;;6.70;2.30;;;;;17.70;101672.00;;;;10490691;28;20192;-76
2022/10/09 10:22:35;;;;;;;3.97;2.33;;;;;18.20;101668.00;;;;10482053;28;20228;-77
2022/10/09 10:27:40;;;;;;;2.83;1.95;;;;;18.70;101655.00;;;;10503954;27;20206;-77
2022/10/09 10:33:13;;;;;;;4.55;2.35;;;;;19.10;101652.00;;;;10511002;28;20194;-77
2022/10/09 10:38:25;;;;;;;5.13;2.22;;;;;19.20;101641.00;;;;10507277;28;20201;-77
2022/10/09 10:43:58;;;;;;;6.97;2.40;;;;;19.30;101630.00;;;;10479915;28;20209;-77
2022/10/09 10:49:00;;;;;;;5.97;2.38;;;;;19.60;101622.00;;;;10502593;28;20200;-77
2022/10/09 10:54:07;;;;;;;5.82;3.25;;;;;19.80;101618.00;;;;10499978;28;20800;-77
2022/10/09 10:59:39;;;;;;;4.47;2.42;;;;;20.00;101603.00;;;;10498023;28;20708;-77
2022/10/09 11:04:59;;;;;;;5.00;2.35;;;;;20.30;101593.00;;;;10509639;27;20631;-77
2022/10/09 11:10:25;;;;;;;6.13;2.65;;;;;20.60;101581.00;;;;10492602;27;20217;-77
2022/10/09 11:15:38;;;;;;;4.32;2.35;;;;;20.50;101576.00;;;;10500100;28;20203;-77
2022/10/09 11:21:07;;;;;;;6.18;2.03;;;;;20.60;101562.00;;;;10494231;28;20208;-77
2022/10/09 11:26:33;;;;;;;4.55;2.15;;;;;20.70;101557.00;;;;10478514;28;20630;-77
2022/10/09 11:31:41;;;;;;;3.72;1.90;;;;;20.90;101555.00;;;;10474358;28;20258;-78
2022/10/09 11:36:44;;;;;;;6.05;2.10;;;;;20.80;101545.00;;;;10467364;28;20576;-77
2022/10/09 11:41:47;;;;;;;4.78;2.00;;;;;20.70;101539.00;;;;10514080;27;20860;-77
2022/10/09 11:47:07;;;;;;;6.00;2.00;;;;;20.90;101525.00;;;;10517920;28;20194;-78
2022/10/09 11:52:36;;;;;;;4.03;1.83;;;;;21.10;101515.00;;;;10487117;27;20915;-78
2022/10/09 11:57:37;;;;;;;5.50;1.73;;;;;21.20;101507.00;;;;10469405;27;20251;-77
2022/10/09 12:02:39;;;;;;;3.47;1.48;;;;;21.20;101495.00;;;;10494533;28;20443;-77
2022/10/09 12:07:40;;;;;;;4.45;1.88;;;;;21.30;101490.00;;;;10476373;28;20212;-78
2022/10/09 12:12:41;;;;;;;5.90;2.05;;;;;21.40;101474.00;;;;10501145;28;20216;-77
2022/10/09 12:17:48;;;;;;;6.57;1.70;;;;;21.60;101455.00;;;;10472383;28;20769;-76
2022/10/09 12:22:56;;;;;;;2.97;1.30;;;;;21.80;101450.00;;;;10481288;28;20660;-76
2022/10/09 12:28:28;;;;;;;4.15;1.33;;;;;21.80;101439.00;;;;10469087;28;20246;-77
2022/10/09 12:33:35;;;;;;;4.38;2.17;;;;;21.90;101426.00;;;;10497042;28;20204;-77
2022/10/09 12:38:36;;;;;;;5.93;1.70;;;;;21.90;101417.00;;;;10500505;27;20196;-76
2022/10/09 12:43:45;;;;;;;4.25;1.60;;;;;21.90;101404.00;;;;10473398;28;20509;-77
2022/10/09 12:48:46;;;;;;;3.38;1.35;;;;;22.00;101403.00;;;;10484343;28;20200;-77
2022/10/09 12:53:50;;;;;;;3.42;1.35;;;;;22.00;101400.00;;;;10503833;28;20201;-77
2022/10/09 12:58:52;;;;;;;3.80;1.20;;;;;22.00;101391.00;;;;10473985;27;20272;-77
2022/10/09 13:04:22;;;;;;;2.28;1.30;;;;;21.80;101365.00;;;;10499502;28;20868;-77
2022/10/09 13:09:27;;;;;;;5.40;1.40;;;;;21.40;101372.00;;;;10473328;28;20220;-77
2022/10/09 13:14:43;;;;;;;5.72;1.50;;;;;20.90;101351.00;;;;10487494;28;20731;-77
2022/10/09 13:19:51;;;;;;;1.85;1.23;;;;;20.60;101350.00;;;;10489084;28;20188;-77
2022/10/09 13:24:54;;;;;;;5.88;1.50;;;;;20.30;101331.00;;;;10497643;28;20208;-76
2022/10/09 13:29:55;;;;;;;3.75;1.40;;;;;19.90;101331.00;;;;10480703;28;20236;-77
2022/10/09 13:34:57;;;;;;;4.60;1.42;;;;;19.70;101327.00;;;;10505859;27;20200;-77
2022/10/09 13:39:58;;;;;;;2.67;1.33;;;;;19.50;101310.00;;;;10450600;28;20204;-76
2022/10/09 13:45:00;;;;;;;3.42;1.30;;;;;19.40;101308.00;;;;10456021;28;20216;-76
2022/10/09 13:50:01;;;;;;;3.10;1.42;;;;;19.30;101305.00;;;;10475195;27;20272;-76
2022/10/09 13:55:04;;;;;;;3.92;1.50;;;;;19.20;101294.00;;;;10514169;27;20207;-76
2022/10/09 14:00:06;;;;;;;4.70;1.38;;;;;20.00;101278.00;;;;10478169;28;20200;-76
2022/10/09 14:05:12;;;;;;;3.88;1.45;;;;;19.60;101278.00;;;;10509667;28;20200;-77
2022/10/09 14:10:14;;;;;;;5.18;1.33;;;;;19.10;101277.00;;;;10477577;28;20594;-76
2022/10/09 14:15:16;;;;;;;4.25;1.63;;;;;18.90;101265.00;;;;10495200;28;20240;-76
2022/10/09 14:20:17;;;;;;;5.82;1.60;;;;;19.10;101253.00;;;;10493170;28;20197;-76
2022/10/09 14:25:18;;;;;;;5.03;1.80;;;;;18.80;101248.00;;;;10454734;28;20200;-76
2022/10/09 14:30:20;;;;;;;3.70;1.60;;;;;18.90;101235.00;;;;10510616;27;20212;-76
2022/10/09 14:35:21;;;;;;;2.83;1.20;;;;;19.50;101233.00;;;;10505701;28;20201;-76
2022/10/09 14:40:22;;;;;;;3.47;1.25;;;;;19.00;101224.00;;;;10484330;27;20219;-76
2022/10/09 14:45:24;;;;;;;4.90;1.20;;;;;18.80;101207.00;;;;10461658;28;20197;-76
2022/10/09 14:50:25;;;;;;;3.95;1.17;;;;;19.20;101195.00;;;;10501521;28;20836;-76
2022/10/09 14:55:26;;;;;;;2.78;1.17;;;;;19.00;101205.00;;;;10487884;28;20204;-77
2022/10/09 15:00:27;;;;;;;2.25;1.23;;;;;18.30;101192.00;;;;10481865;28;20193;-76
2022/10/09 15:05:29;;;;;;;1.15;0.90;;;;;18.00;101183.00;;;;10485789;28;20397;-76
2022/10/09 15:10:32;;;;;;;3.83;1.27;;;;;17.90;101176.00;;;;10479416;28;20327;-76
2022/10/09 15:15:33;;;;;;;2.53;1.17;;;;;17.70;101161.00;;;;10475942;28;20201;-76
2022/10/09 15:20:35;;;;;;;3.42;1.30;;;;;17.50;101156.00;;;;10466885;28;20204;-76
2022/10/09 15:25:36;;;;;;;2.58;1.23;;;;;17.40;101161.00;;;;10498882;28;20200;-77
2022/10/09 15:30:43;;;;;;;3.22;1.42;;;;;17.30;101150.00;;;;10486676;28;20204;-76
2022/10/09 15:35:44;;;;;;;4.88;1.23;;;;;17.10;101147.00;;;;10467075;28;20220;-76
2022/10/09 15:40:48;;;;;;;3.30;1.48;;;;;17.10;101140.00;;;;10495401;28;20208;-77
2022/10/09 15:45:49;;;;;;;2.15;1.10;;;;;17.00;101126.00;;;;10490915;28;20193;-76
2022/10/09 15:50:52;;;;;;;3.00;1.45;;;;;16.80;101124.00;;;;10499639;28;20197;-76
2022/10/09 15:55:53;;;;;;;4.25;1.27;;;;;16.80;101114.00;;;;10494779;27;20200;-77
2022/10/09 16:00:54;;;;;;;5.75;1.45;;;;;16.70;101102.00;;;;10484106;28;20213;-76
2022/10/09 16:05:58;;;;;;;3.55;1.08;;;;;16.60;101102.00;;;;10467167;28;20702;-76
2022/10/09 16:11:04;;;;;;;4.57;1.63;;;;;16.30;101092.00;;;;10439918;28;20248;-76
2022/10/09 16:16:08;;;;;;;5.90;1.30;;;;;16.20;101084.00;;;;10492290;28;20291;-76
2022/10/09 16:21:13;;;;;;;2.50;1.10;;;;;16.00;101085.00;;;;10479222;28;20304;-76
2022/10/09 16:26:17;;;;;;;6.10;1.30;;;;;15.90;101078.00;;;;10499980;28;20725;-78
2022/10/09 16:31:24;;;;;;;3.95;1.25;;;;;15.80;101086.00;;;;10488526;28;20204;-76
2022/10/09 16:36:26;;;;;;;4.80;1.23;;;;;15.60;101074.00;;;;10498759;28;20839;-76
2022/10/09 16:41:28;;;;;;;3.30;1.20;;;;;15.30;101083.00;;;;10471250;27;20269;-76
2022/10/09 16:46:31;;;;;;;2.10;1.33;;;;;15.10;101076.00;;;;10491593;28;20197;-76
2022/10/09 16:51:34;;;;;;;3.03;1.50;;;;;14.90;101071.00;;;;10474789;28;20667;-76
2022/10/09 16:56:37;;;;;;;3.50;1.30;;;;;14.70;101070.00;;;;10499659;28;20258;-76
2022/10/09 17:01:43;;;;;;;2.67;1.40;;;;;14.50;101070.00;;;;10493366;27;20211;-76
2022/10/09 17:06:45;;;;;;;5.00;1.70;;;;;14.30;101069.00;;;;10479278;28;20225;-76
2022/10/09 17:11:46;;;;;;;3.87;1.70;;;;;14.10;101071.00;;;;10515440;28;20714;-76
2022/10/09 17:16:47;;;;;;;3.37;1.60;;;;;14.10;101068.00;;;;10473476;28;20199;-76
2022/10/09 17:21:48;;;;;;;5.77;1.50;;;;;14.00;101070.00;;;;10466079;28;20217;-76
2022/10/09 17:26:50;;;;;;;2.30;1.67;;;;;13.80;101071.00;;;;10459385;28;20667;-76
2022/10/09 17:31:51;;;;;;;5.50;2.00;;;;;13.70;101075.00;;;;10500813;28;20203;-76
2022/10/09 17:36:52;;;;;;;5.43;1.80;;;;;13.60;101073.00;;;;10508029;28;20196;-76
2022/10/09 17:41:53;;;;;;;7.37;2.20;;;;;13.50;101072.00;;;;10480207;28;20247;-76
2022/10/09 17:46:55;;;;;;;3.83;1.80;;;;;13.40;101076.00;;;;10497833;27;20230;-76
2022/10/09 17:51:56;;;;;;;6.00;2.00;;;;;13.30;101070.00;;;;10476297;28;20207;-76
2022/10/09 17:56:59;;;;;;;4.73;2.37;;;;;13.30;101070.00;;;;10500826;27;20197;-77
2022/10/09 18:02:00;;;;;;;5.53;2.30;;;;;13.10;101066.00;;;;10457022;28;20304;-76
2022/10/09 18:07:01;;;;;;;4.43;2.00;;;;;13.00;101071.00;;;;10461425;28;20256;-76
2022/10/09 18:12:03;;;;;;;4.87;2.10;;;;;12.80;101055.00;;;;10488443;28;20224;-76
2022/10/09 18:17:04;;;;;;;7.03;1.90;;;;;12.80;101061.00;;;;10468468;28;20201;-77
2022/10/09 18:22:05;;;;;;;8.03;2.47;;;;;12.70;101057.00;;;;10479148;28;20216;-76
2022/10/09 18:27:06;;;;;;;3.93;2.07;;;;;12.60;101050.00;;;;10483883;27;20197;-76
2022/10/09 18:32:07;;;;;;;5.23;2.10;;;;;12.50;101045.00;;;;10506093;27;20204;-76
2022/10/09 18:37:08;;;;;;;3.40;2.17;;;;;12.40;101046.00;;;;10455792;28;20207;-76
2022/10/09 18:42:10;;;;;;;5.90;2.37;;;;;12.30;101051.00;;;;10474421;28;20300;-76
2022/10/09 18:47:15;;;;;;;9.70;3.13;;;;;12.20;101049.00;;;;10464924;28;20277;-76
2022/10/09 18:52:17;;;;;;;8.07;3.13;;;;;12.10;101047.00;;;;10476059;28;20254;-76
2022/10/09 18:57:21;;;;;;;8.20;3.50;;;;;11.90;101036.00;;;;10474966;28;20304;-76
2022/10/09 19:02:25;;;;;;;6.33;2.93;;;;;11.70;101035.00;;;;10471051;28;20217;-76
2022/10/09 19:07:26;;;;;;;7.13;2.87;;;;;11.60;101029.00;;;;10503403;28;20776;-76
2022/10/09 19:12:27;;;;;;;7.93;2.87;;;;;11.60;101035.00;;;;10501118;28;20334;-76
2022/10/09 19:17:28;;;;;;;5.87;3.37;;;;;11.50;101025.00;;;;10482925;28;20201;-76
2022/10/09 19:22:29;;;;;;;7.97;3.30;;;;;11.40;101026.00;;;;10516355;28;20231;-76
2022/10/09 19:27:31;;;;;;;3.83;2.93;;;;;11.30;101032.00;;;;10476712;28;20200;-76
2022/10/09 19:32:32;;;;;;;4.33;2.53;;;;;11.30;101029.00;;;;10505461;28;20205;-76
2022/10/09 19:37:33;;;;;;;9.10;3.77;;;;;11.20;101027.00;;;;10484314;28;20209;-76
2022/10/09 19:42:35;;;;;;;7.00;3.00;;;;;11.10;101016.00;;;;10526172;27;20223;-76
2022/10/09 19:47:36;;;;;;;5.07;2.67;;;;;11.00;101021.00;;;;10472190;28;20216;-76
2022/10/09 19:52:37;;;;;;;9.03;3.40;;;;;10.90;101017.00;;;;10491690;28;20332;-75
2022/10/09 19:57:38;;;;;;;6.40;3.20;;;;;11.10;101014.00;;;;10508523;28;20200;-76
2022/10/09 20:02:40;;;;;;;5.33;2.70;;;;;11.10;101010.00;;;;10452777;27;20220;-76
2022/10/09 20:07:41;;;;;;;6.13;2.63;;;;;11.10;101006.00;;;;10479892;28;20197;-76
2022/10/09 20:12:42;;;;;;;15.63;3.10;;;;;11.00;101007.00;;;;10487628;28;20243;-76
2022/10/09 20:17:43;;;;;;;4.87;3.17;;;;;10.90;101013.00;;;;10492474;28;20214;-76
2022/10/09 20:22:45;;;;;;;9.60;3.43;;;;;10.80;100996.00;;;;10516518;27;20217;-76
2022/10/09 20:27:46;;;;;;;7.67;3.40;;;;;10.80;100992.00;;;;10483581;28;20213;-76
2022/10/09 20:32:47;;;;;;;6.90;3.30;;;;;10.70;100994.00;;;;10509293;28;20209;-76
2022/10/09 20:37:49;;;;;;;8.97;4.07;;;;;10.70;100997.00;;;;10517584;28;20624;-76
2022/10/09 20:42:50;;;;;;;10.27;3.63;;;;;10.70;100993.00;;;;10481234;27;20248;-76
2022/10/09 20:47:52;;;;;;;4.50;3.13;;;;;10.70;100994.00;;;;10496137;28;20752;-76
2022/10/09 20:52:53;;;;;;;5.17;3.43;;;;;10.60;100988.00;;;;10499219;28;20197;-76
2022/10/09 20:57:55;;;;;;;7.43;3.57;;;;;10.60;100989.00;;;;10469609;27;20205;-76
2022/10/09 21:02:56;;;;;;;8.70;4.13;;;;;10.60;100985.00;;;;10498162;28;20228;-76
2022/10/09 21:07:57;;;;;;;5.00;2.97;;;;;10.50;100987.00;;;;10469154;28;20192;-76
2022/10/09 21:12:58;;;;;;;7.23;3.60;;;;;10.40;100979.00;;;;10491347;28;20243;-76
2022/10/09 21:17:59;;;;;;;7.30;4.13;;;;;10.30;100979.00;;;;10499714;28;20201;-76
2022/10/09 21:23:00;;;;;;;11.13;3.87;;;;;10.30;100975.00;;;;10486011;28;20212;-76
2022/10/09 21:28:03;;;;;;;5.40;3.90;;;;;10.20;100971.00;;;;10482184;28;20200;-76
2022/10/09 21:33:04;;;;;;;6.40;4.13;;;;;10.20;100974.00;;;;10472211;28;20197;-76
2022/10/09 21:38:09;;;;;;;4.40;3.50;;;;;10.20;100968.00;;;;10466691;28;20223;-76
2022/10/09 21:43:11;;;;;;;7.60;4.07;;;;;10.10;100963.00;;;;10507997;28;20299;-76
2022/10/09 21:48:15;;;;;;;9.27;4.53;;;;;10.00;100962.00;;;;10493241;28;20196;-76
2022/10/09 21:53:16;;;;;;;6.13;3.90;;;;;9.90;100956.00;;;;10519764;27;20223;-76
2022/10/09 21:58:17;;;;;;;7.33;4.27;;;;;9.80;100963.00;;;;10466878;28;20885;-76
2022/10/09 22:03:18;;;;;;;6.53;3.90;;;;;9.70;100957.00;;;;10505318;28;20223;-76
2022/10/09 22:08:20;;;;;;;7.60;4.37;;;;;9.50;100950.00;;;;10443117;28;20197;-76
2022/10/09 22:13:21;;;;;;;5.33;4.30;;;;;9.30;100945.00;;;;10473963;28;20359;-75
2022/10/09 22:18:23;;;;;;;4.83;3.50;;;;;9.20;100936.00;;;;10467758;28;20204;-76
2022/10/09 22:23:24;;;;;;;6.07;4.33;;;;;9.00;100936.00;;;;10499649;28;20396;-75
2022/10/09 22:28:25;;;;;;;8.40;4.40;;;;;8.80;100929.00;;;;10488394;28;20197;-76
2022/10/09 22:33:27;;;;;;;9.60;4.20;;;;;8.70;100936.00;;;;10453051;28;20609;-76
2022/10/09 22:38:29;;;;;;;7.93;4.83;;;;;8.50;100936.00;;;;10473805;28;20206;-76
2022/10/09 22:43:30;;;;;;;8.80;4.77;;;;;8.40;100933.00;;;;10494782;28;20213;-76
2022/10/09 22:48:31;;;;;;;7.37;4.70;;;;;8.30;100929.00;;;;10483088;27;20195;-76
2022/10/09 22:53:34;;;;;;;7.77;5.60;;;;;8.20;100928.00;;;;10472488;28;20864;-76
2022/10/09 22:58:35;;;;;;;9.70;5.40;;;;;8.10;100923.00;;;;10488794;28;20201;-75
2022/10/09 23:03:36;;;;;;;10.43;6.23;;;;;7.90;100925.00;;;;10487960;28;20762;-76
2022/10/09 23:08:39;;;;;;;8.33;5.87;;;;;7.80;100923.00;;;;10484980;28;20199;-76
2022/10/09 23:13:40;;;;;;;10.00;6.13;;;;;7.70;100928.00;;;;10492030;28;20220;-76
2022/10/09 23:18:42;;;;;;;10.83;6.30;;;;;7.60;100914.00;;;;10507821;28;20201;-75
2022/10/09 23:23:44;;;;;;;15.13;7.37;;;;;7.50;100912.00;;;;10461790;28;20635;-75
2022/10/09 23:28:51;;;;;;;12.67;7.37;;;;;7.40;100909.00;;;;10498449;28;20205;-76
2022/10/09 23:33:53;;;;;;;9.67;6.73;;;;;7.40;100906.00;;;;10477274;28;20246;-76
2022/10/09 23:38:55;;;;;;;11.53;7.03;;;;;7.30;100891.00;;;;10481950;28;20208;-75
2022/10/09 23:43:57;;;;;;;14.87;7.30;;;;;7.30;100890.00;;;;10496512;28;20758;-76
2022/10/09 23:48:58;;;;;;;13.50;6.93;;;;;7.30;100895.00;;;;10494096;28;20221;-76
2022/10/09 23:54:00;;;;;;;11.07;6.37;;;;;7.20;100884.00;;;;10440601;28;20232;-75
2022/10/09 23:59:07;;;;;;;6.83;5.60;;;;;7.20;100877.00;;;;10472011;28;20251;-76
